Time;durP1;ratioP1;P1;durP2;ratioP2;P2;SDS_P1;SDS_P2;PMS_P1;PMS_P2;Temp;Humidity;BMP_temperature;BMP_pressure;BME280_temperature;BME280_humidity;BME280_pressure;Samples;Min_cycle;Max_cycle;Signal;HPM_P1;HPM_P2
2022/02/07 00:02:25;;;;;;;10.43;1.70;;;;;;;9.25;70.87;101186.22;5019796;28;20041;-63
2022/02/07 00:04:52;;;;;;;11.70;1.77;;;;;;;9.18;70.05;101202.22;5031387;28;20382;-64
2022/02/07 00:07:20;;;;;;;13.95;2.00;;;;;;;9.12;70.54;101195.97;5027741;28;20062;-63
2022/02/07 00:09:47;;;;;;;13.20;2.00;;;;;;;9.03;70.49;101211.47;5015375;28;20062;-62
2022/02/07 00:12:16;;;;;;;11.95;2.55;;;;;;;9.01;70.82;101224.69;5027014;28;20120;-62
2022/02/07 00:14:43;;;;;;;8.83;2.10;;;;;;;9.10;69.96;101233.91;5008692;28;20058;-63
2022/02/07 00:17:11;;;;;;;11.70;1.77;;;;;;;8.96;70.36;101244.78;5000845;28;20054;-62
2022/02/07 00:19:38;;;;;;;10.90;1.70;;;;;;;8.93;71.03;101242.59;5018531;28;20057;-62
2022/02/07 00:22:05;;;;;;;16.13;2.60;;;;;;;9.00;71.28;101234.03;5023242;28;20041;-62
2022/02/07 00:24:33;;;;;;;15.80;2.67;;;;;;;9.15;70.25;101241.28;5021037;28;20046;-63
2022/02/07 00:27:00;;;;;;;13.27;2.25;;;;;;;9.06;70.79;101255.69;5006714;28;20057;-63
2022/02/07 00:29:27;;;;;;;7.78;1.30;;;;;;;9.19;71.19;101243.16;5022036;28;20060;-63
2022/02/07 00:31:54;;;;;;;11.73;2.17;;;;;;;9.34;70.16;101253.19;5000878;28;20046;-62
2022/02/07 00:34:22;;;;;;;13.45;2.15;;;;;;;9.17;70.30;101252.81;4999248;28;20053;-62
2022/02/07 00:36:49;;;;;;;10.68;1.88;;;;;;;9.28;71.36;101262.56;5020380;28;20057;-64
2022/02/07 00:39:25;;;;;;;17.70;2.45;;;;;;;9.49;71.08;101270.31;5011368;28;20303;-63
2022/02/07 00:42:00;;;;;;;12.88;2.72;;;;;;;9.02;70.86;101279.34;5015460;28;20065;-63
2022/02/07 00:44:27;;;;;;;10.95;2.08;;;;;;;9.06;71.60;101280.41;5011611;28;20056;-63
2022/02/07 00:46:58;;;;;;;12.93;2.15;;;;;;;8.86;71.37;101282.50;5029675;28;20623;-63
2022/02/07 00:49:26;;;;;;;17.00;2.00;;;;;;;8.89;70.33;101303.94;5033876;28;20053;-62
2022/02/07 00:51:55;;;;;;;13.45;2.40;;;;;;;8.77;70.93;101293.28;5028237;28;20060;-63
2022/02/07 00:54:22;;;;;;;14.88;2.08;;;;;;;8.76;70.88;101313.63;5012767;28;20046;-63
2022/02/07 00:56:51;;;;;;;10.45;2.20;;;;;;;8.60;70.29;101322.25;5010532;28;20414;-63
2022/02/07 00:59:19;;;;;;;17.35;1.92;;;;;;;8.62;70.10;101351.09;5029181;28;20041;-62
2022/02/07 01:01:46;;;;;;;13.20;1.73;;;;;;;8.53;69.81;101349.22;5017880;28;20042;-62
2022/02/07 01:04:14;;;;;;;13.98;2.60;;;;;;;8.52;70.24;101356.66;5003672;28;20427;-62
2022/02/07 01:07:07;;;;;;;15.55;2.13;;;;;;;8.56;70.14;101362.41;5013458;28;20053;-62
2022/02/07 01:09:42;;;;;;;12.70;1.90;;;;;;;8.58;70.41;101365.66;5030064;28;20069;-63
2022/02/07 01:12:27;;;;;;;14.32;2.40;;;;;;;8.47;70.21;101381.38;5036856;28;20049;-63
2022/02/07 01:46:02;;;;;;;12.00;2.22;;;;;;;8.61;69.55;101411.78;5028254;28;20046;-64
2022/02/07 01:52:11;;;;;;;12.70;2.03;;;;;;;7.94;65.18;101525.63;5026112;28;20149;-62
2022/02/07 01:56:46;;;;;;;14.18;2.10;;;;;;;7.94;63.14;101530.28;5035386;28;20049;-62
2022/02/07 01:59:16;;;;;;;11.25;2.30;;;;;;;7.81;63.00;101534.38;5007749;28;20631;-64
2022/02/07 02:01:44;;;;;;;13.73;2.20;;;;;;;7.76;63.41;101525.34;5029366;28;20053;-64
2022/02/07 02:04:11;;;;;;;16.25;2.42;;;;;;;7.79;62.90;101533.03;5042791;28;20056;-63
2022/02/07 02:06:39;;;;;;;17.40;2.63;;;;;;;8.06;63.90;101530.81;5024878;28;20062;-63
2022/02/07 02:09:29;;;;;;;10.63;1.90;;;;;;;7.75;61.05;101546.47;5019796;28;20069;-62
2022/02/07 02:11:59;;;;;;;12.02;2.53;;;;;;;7.61;61.31;101561.00;5014679;28;20060;-62
2022/02/07 02:14:48;;;;;;;14.70;1.88;;;;;;;7.63;60.64;101558.81;5014552;28;20138;-62
2022/02/07 02:46:32;;;;;;;13.25;2.05;;;;;;;7.55;61.30;101638.84;5022928;28;20053;-63
2022/02/07 02:49:02;;;;;;;14.38;2.53;;;;;;;7.39;61.73;101646.19;5027973;28;20057;-63
2022/02/07 02:51:32;;;;;;;9.45;1.77;;;;;;;7.49;62.15;101659.13;5007905;28;20057;-63
2022/02/07 02:54:00;;;;;;;12.23;2.08;;;;;;;7.65;61.43;101671.78;5024976;28;20060;-62
2022/02/07 02:56:28;;;;;;;12.73;2.58;;;;;;;7.45;61.47;101679.94;5027099;28;20056;-65
2022/02/07 02:58:56;;;;;;;13.18;2.83;;;;;;;7.44;61.50;101681.88;5003728;28;20049;-64
2022/02/07 03:01:30;;;;;;;17.70;3.50;;;;;;;7.27;62.33;101669.47;5024164;28;20055;-63
2022/02/07 03:04:09;;;;;;;13.63;2.35;;;;;;;7.22;63.12;101670.25;5025649;28;20049;-62
2022/02/07 03:06:38;;;;;;;12.77;2.25;;;;;;;7.16;62.41;101665.88;5033537;28;20072;-63
2022/02/07 03:09:13;;;;;;;14.07;2.22;;;;;;;7.15;62.70;101666.94;5026545;28;20060;-63
2022/02/07 03:11:42;;;;;;;15.23;1.85;;;;;;;7.14;62.62;101664.47;5033647;28;20072;-63
2022/02/07 03:14:20;;;;;;;17.40;2.50;;;;;;;7.12;62.67;101674.88;5033178;28;20050;-63
2022/02/07 03:16:50;;;;;;;11.88;2.25;;;;;;;7.13;62.52;101673.78;5025928;28;20392;-63
2022/02/07 03:19:19;;;;;;;13.40;3.40;;;;;;;7.34;62.37;101683.75;5025211;28;20060;-63
2022/02/07 03:21:51;;;;;;;16.90;3.10;;;;;;;7.24;62.80;101670.81;5020463;28;20061;-62
2022/02/07 03:24:19;;;;;;;15.23;2.00;;;;;;;7.45;62.10;101679.94;5030530;28;20053;-62
2022/02/07 03:27:13;;;;;;;16.58;2.33;;;;;;;7.25;61.98;101693.56;5026622;28;20046;-62
2022/02/07 03:29:47;;;;;;;14.35;2.15;;;;;;;7.17;63.25;101705.03;4996624;28;20053;-62
2022/02/07 03:32:18;;;;;;;14.85;3.72;;;;;;;7.17;62.74;101711.34;5037688;28;20056;-63
2022/02/07 03:34:52;;;;;;;16.48;2.40;;;;;;;7.11;62.81;101703.38;5021722;28;20049;-62
2022/02/07 03:37:20;;;;;;;12.90;2.15;;;;;;;7.28;62.66;101714.94;5032715;28;20060;-62
2022/02/07 03:39:48;;;;;;;19.15;2.53;;;;;;;7.46;61.70;101718.03;5031021;28;20531;-62
2022/02/07 03:42:18;;;;;;;15.68;2.80;;;;;;;7.19;62.30;101728.34;5022228;28;20701;-63
2022/02/07 03:44:59;;;;;;;14.13;2.58;;;;;;;7.09;62.63;101736.50;5026209;28;20056;-62
2022/02/07 03:47:30;;;;;;;11.35;1.90;;;;;;;7.01;63.19;101747.94;5033056;28;20053;-64
2022/02/07 03:49:59;;;;;;;12.70;2.40;;;;;;;7.39;63.92;101755.03;5029157;28;20053;-62
2022/02/07 03:52:27;;;;;;;14.90;1.83;;;;;;;7.24;62.51;101760.41;5019977;28;20053;-62
2022/02/07 03:54:54;;;;;;;20.13;2.55;;;;;;;7.22;62.23;101746.97;5026904;28;20060;-62
2022/02/07 03:57:22;;;;;;;16.60;2.40;;;;;;;6.91;62.34;101768.97;5032970;28;20049;-62
2022/02/07 03:59:49;;;;;;;13.00;2.72;;;;;;;6.97;63.09;101768.75;4999844;28;20054;-62
2022/02/07 04:02:19;;;;;;;15.27;2.30;;;;;;;7.18;63.05;101772.44;5008430;28;20409;-62
2022/02/07 04:04:53;;;;;;;14.98;2.42;;;;;;;7.21;63.41;101772.75;5020779;28;20401;-62
2022/02/07 04:07:20;;;;;;;14.43;2.38;;;;;;;6.93;63.14;101775.84;5019584;28;20061;-61
2022/02/07 04:09:53;;;;;;;13.88;2.38;;;;;;;6.97;63.08;101776.13;5006003;28;20053;-62
2022/02/07 04:12:24;;;;;;;12.85;2.05;;;;;;;7.12;63.37;101774.31;5017347;28;20056;-62
2022/02/07 04:14:56;;;;;;;17.45;2.38;;;;;;;6.87;62.99;101789.78;5028847;28;20053;-61
2022/02/07 04:17:27;;;;;;;15.82;2.40;;;;;;;7.06;62.76;101797.28;5023551;28;20061;-62
2022/02/07 04:19:59;;;;;;;21.10;2.20;;;;;;;7.02;63.41;101811.78;5029408;28;20061;-65
2022/02/07 04:22:36;;;;;;;16.25;2.72;;;;;;;6.69;63.59;101815.63;5026261;28;20054;-63
2022/02/07 04:25:19;;;;;;;17.38;2.38;;;;;;;6.69;64.31;101815.63;5018379;28;20057;-62
2022/02/07 04:27:57;;;;;;;18.52;2.50;;;;;;;6.66;64.04;101819.72;5009457;28;20050;-62
2022/02/07 04:30:28;;;;;;;15.88;2.58;;;;;;;6.78;64.14;101825.84;5028569;28;20058;-62
2022/02/07 04:32:55;;;;;;;21.25;3.03;;;;;;;7.06;63.13;101832.88;5032359;28;20416;-63
2022/02/07 04:35:22;;;;;;;15.75;2.60;;;;;;;6.79;63.81;101837.63;5023185;28;20049;-63
2022/02/07 04:37:50;;;;;;;15.80;2.28;;;;;;;7.32;63.20;101837.44;5031902;28;20060;-62
2022/02/07 04:40:17;;;;;;;15.13;2.22;;;;;;;6.99;63.88;101837.78;5026889;28;20041;-61
2022/02/07 04:42:45;;;;;;;15.43;2.33;;;;;;;6.96;64.21;101837.50;5033897;28;20435;-63
2022/02/07 04:48:13;;;;;;;16.77;2.78;;;;;;;6.84;63.86;101854.09;5022537;28;20464;-63
2022/02/07 04:56:14;;;;;;;17.55;2.58;;;;;;;6.97;63.77;101850.94;5036112;28;20053;-63
2022/02/07 05:02:04;;;;;;;;;;;;;;;6.70;63.59;101861.91;5034539;28;20689;-62
2022/02/07 05:04:19;;;;;;;15.15;2.40;;;;;;;6.72;63.84;101862.50;5024878;28;20395;-62
2022/02/07 05:15:06;;;;;;;18.02;2.30;;;;;;;6.57;64.41;101884.22;5035744;28;20050;-62
2022/02/07 05:17:37;;;;;;;10.10;2.22;;;;;;;6.61;64.22;101900.97;5023304;28;20053;-62
2022/02/07 05:20:17;;;;;;;19.50;3.35;;;;;;;6.56;64.87;101906.38;5020214;28;20532;-62
2022/02/07 05:23:08;;;;;;;13.57;2.58;;;;;;;6.96;64.16;101900.50;5034117;28;20048;-63
2022/02/07 05:25:58;;;;;;;18.05;2.95;;;;;;;6.64;64.61;101912.22;5023113;28;20049;-63
2022/02/07 05:28:43;;;;;;;16.20;2.38;;;;;;;6.60;64.83;101913.00;5030206;28;20060;-61
2022/02/07 05:31:21;;;;;;;18.20;2.50;;;;;;;6.70;64.68;101913.09;5023159;28;20524;-62
2022/02/07 05:34:07;;;;;;;17.10;2.75;;;;;;;6.78;64.38;101920.88;5026436;28;20057;-62
2022/02/07 05:36:56;;;;;;;18.58;3.55;;;;;;;6.56;65.09;101915.44;5032979;28;20053;-62
2022/02/07 05:39:34;;;;;;;23.95;2.70;;;;;;;6.76;64.95;101921.09;5032158;28;20504;-62
2022/02/07 05:42:20;;;;;;;17.65;3.42;;;;;;;6.62;64.95;101928.09;5031657;28;20618;-62
2022/02/07 05:45:07;;;;;;;13.50;2.78;;;;;;;6.65;64.85;101940.44;5032695;28;20521;-62
2022/02/07 05:48:04;;;;;;;17.73;2.58;;;;;;;6.58;65.04;101957.06;5022560;28;20064;-62
2022/02/07 05:51:01;;;;;;;18.48;2.40;;;;;;;6.42;65.94;101957.13;5035028;28;20049;-64
2022/02/07 05:53:52;;;;;;;19.02;3.08;;;;;;;6.50;65.85;101959.44;5031585;28;20053;-60
2022/02/07 05:56:51;;;;;;;20.02;2.85;;;;;;;6.50;65.92;101970.38;5028635;28;20061;-65
2022/02/07 05:59:38;;;;;;;16.10;2.97;;;;;;;6.57;66.17;101973.75;5025485;28;20049;-63
2022/02/07 06:02:45;;;;;;;23.40;3.78;;;;;;;6.74;65.89;101975.31;5035427;28;20045;-62
2022/02/07 06:05:38;;;;;;;19.73;2.80;;;;;;;6.92;64.68;101976.03;5019958;28;20054;-63
2022/02/07 06:08:12;;;;;;;16.60;3.35;;;;;;;6.85;65.09;101979.00;5008799;28;20061;-63
2022/02/07 06:10:39;;;;;;;20.38;2.83;;;;;;;6.71;65.48;101988.69;4989572;28;20054;-63
2022/02/07 06:13:11;;;;;;;20.20;2.55;;;;;;;6.73;65.18;101992.81;5009365;28;20080;-63
2022/02/07 06:15:40;;;;;;;22.73;3.05;;;;;;;6.50;65.85;101997.75;5027622;28;20049;-63
2022/02/07 06:18:11;;;;;;;18.23;3.47;;;;;;;6.45;66.17;101994.94;5014059;28;20072;-62
2022/02/07 06:20:38;;;;;;;16.70;2.83;;;;;;;6.47;66.45;102004.53;5033546;28;20045;-63
2022/02/07 06:23:05;;;;;;;17.42;3.50;;;;;;;6.46;66.39;102004.81;5000772;28;20049;-61
2022/02/07 06:25:33;;;;;;;23.13;3.20;;;;;;;6.43;66.68;102006.13;4979922;28;20052;-63
2022/02/07 06:28:01;;;;;;;19.05;4.22;;;;;;;6.45;66.62;102012.19;4992255;28;20058;-63
2022/02/07 06:30:44;;;;;;;23.60;3.55;;;;;;;6.35;67.13;102019.44;5016580;28;20056;-63
2022/02/07 06:33:11;;;;;;;19.77;3.30;;;;;;;6.49;66.97;102027.03;5006034;28;20061;-63
2022/02/07 06:35:39;;;;;;;18.02;3.35;;;;;;;6.60;66.80;102014.28;5011440;28;20046;-63
2022/02/07 06:38:07;;;;;;;19.85;3.78;;;;;;;6.81;66.72;102021.66;4998209;28;20065;-62
2022/02/07 06:40:35;;;;;;;16.85;2.75;;;;;;;6.96;67.41;102027.28;5001172;28;20119;-62
2022/02/07 06:43:03;;;;;;;20.70;2.83;;;;;;;6.90;65.81;102025.59;5013401;28;20060;-63
2022/02/07 06:45:31;;;;;;;21.10;3.00;;;;;;;6.83;66.69;102030.44;5008932;28;20056;-62
2022/02/07 06:47:58;;;;;;;18.88;3.15;;;;;;;6.69;66.77;102038.19;5011439;28;20053;-62
2022/02/07 06:50:26;;;;;;;21.42;4.57;;;;;;;6.79;66.91;102040.25;5006292;28;20065;-62
2022/02/07 06:52:53;;;;;;;18.13;3.30;;;;;;;6.75;66.48;102044.56;5035030;28;20056;-62
2022/02/07 06:55:21;;;;;;;26.10;4.05;;;;;;;7.01;66.53;102057.47;5017650;28;20045;-64
2022/02/07 06:57:48;;;;;;;23.08;6.57;;;;;;;7.15;65.84;102066.13;5026487;28;20046;-63
2022/02/07 07:00:18;;;;;;;16.77;3.67;;;;;;;7.08;65.73;102068.25;5004366;28;20045;-63
2022/02/07 07:02:48;;;;;;;21.65;3.75;;;;;;;7.06;66.26;102067.69;5005440;28;20053;-62
2022/02/07 07:05:21;;;;;;;23.33;4.07;;;;;;;7.29;65.88;102062.72;5016617;28;20041;-62
2022/02/07 07:07:51;;;;;;;18.67;3.15;;;;;;;7.53;65.14;102063.22;5016790;28;20404;-61
2022/02/07 07:10:20;;;;;;;23.10;3.40;;;;;;;7.49;64.90;102067.56;5011871;28;20054;-62
2022/02/07 07:12:57;;;;;;;14.52;3.40;;;;;;;7.57;65.24;102078.03;5003728;28;20056;-62
2022/02/07 07:15:30;;;;;;;24.00;3.78;;;;;;;7.31;65.26;102076.16;5003675;28;20049;-63
2022/02/07 07:17:58;;;;;;;26.05;3.70;;;;;;;7.33;66.07;102074.81;5033733;28;20048;-62
2022/02/07 07:20:26;;;;;;;19.15;2.97;;;;;;;7.03;66.56;102082.69;5013662;28;20057;-62
2022/02/07 07:22:57;;;;;;;25.80;4.57;;;;;;;7.34;66.67;102094.84;5010562;28;20057;-66
2022/02/07 07:25:25;;;;;;;24.73;3.53;;;;;;;7.49;66.33;102105.94;5021147;28;20508;-65
2022/02/07 07:30:26;;;;;;;25.30;4.03;;;;;;;7.54;66.28;102123.28;5011549;28;20049;-65
2022/02/07 07:33:00;;;;;;;18.55;3.72;;;;;;;7.15;66.82;102124.47;5017145;28;20068;-66
2022/02/07 07:35:28;;;;;;;23.73;4.15;;;;;;;7.18;66.32;102128.63;5011301;28;20503;-64
2022/02/07 07:37:56;;;;;;;24.30;4.30;;;;;;;7.45;65.83;102130.31;5015148;28;20057;-65
2022/02/07 07:40:24;;;;;;;21.50;3.47;;;;;;;7.53;65.92;102129.84;5010637;28;20061;-64
2022/02/07 07:42:54;;;;;;;21.55;4.85;;;;;;;8.07;73.18;102140.75;5004215;28;20050;-63
2022/02/07 07:45:56;;;;;;;22.52;5.50;;;;;;;8.04;68.63;102152.28;4961568;28;20537;-65
2022/02/07 07:48:48;;;;;;;19.50;3.40;;;;;;;7.81;66.30;102156.19;4995491;28;20076;-65
2022/02/07 07:51:57;;;;;;;22.10;3.95;;;;;;;7.96;66.02;102162.63;5011595;28;20057;-64
2022/02/07 08:02:57;;;;;;;27.77;5.20;;;;;;;8.20;64.17;102198.78;4999331;28;20053;-63
2022/02/07 08:05:46;;;;;;;31.75;8.02;;;;;;;8.27;63.70;102202.16;5015803;28;20041;-64
2022/02/07 08:08:37;;;;;;;29.85;4.43;;;;;;;8.00;63.75;102213.13;5015603;28;20428;-64
2022/02/07 08:11:10;;;;;;;24.58;3.97;;;;;;;7.96;64.37;102213.91;5009854;28;20088;-63
2022/02/07 08:13:44;;;;;;;25.17;5.32;;;;;;;8.19;64.17;102215.50;5012601;28;20049;-63
2022/02/07 08:16:16;;;;;;;30.88;4.68;;;;;;;8.15;63.70;102211.63;5013852;28;20529;-63
2022/02/07 08:18:44;;;;;;;30.30;5.00;;;;;;;7.99;64.16;102224.38;5037610;28;20053;-65
2022/02/07 08:21:11;;;;;;;23.38;3.85;;;;;;;7.83;64.45;102228.88;5037756;28;20543;-65
2022/02/07 08:23:39;;;;;;;20.50;5.00;;;;;;;7.83;64.53;102228.88;5038146;28;20067;-64
2022/02/07 08:26:07;;;;;;;24.83;3.83;;;;;;;7.85;65.24;102225.88;5018462;28;20052;-64
2022/02/07 08:28:45;;;;;;;24.02;4.40;;;;;;;8.00;65.38;102250.75;5034631;28;20056;-64
2022/02/07 08:31:13;;;;;;;24.35;3.60;;;;;;;7.97;64.76;102259.47;5036455;28;20045;-64
2022/02/07 08:33:41;;;;;;;24.35;4.28;;;;;;;7.77;65.20;102262.84;4974400;28;20054;-64
2022/02/07 08:36:08;;;;;;;33.15;3.97;;;;;;;8.02;65.29;102264.19;4994021;28;20042;-64
2022/02/07 08:38:35;;;;;;;35.17;5.88;;;;;;;7.80;65.26;102275.19;5044955;28;20057;-64
2022/02/07 08:41:03;;;;;;;32.97;4.22;;;;;;;7.70;65.68;102288.81;5049286;28;20054;-64
2022/02/07 08:43:31;;;;;;;31.83;4.43;;;;;;;7.91;65.11;102294.25;5036600;28;20061;-65
2022/02/07 08:45:58;;;;;;;32.20;6.78;;;;;;;8.11;64.96;102277.19;5034303;28;20054;-63
2022/02/07 08:48:26;;;;;;;36.03;13.13;;;;;;;8.38;65.51;102275.28;5034170;28;20057;-65
2022/02/07 08:50:56;;;;;;;17.33;4.10;;;;;;;8.24;64.51;102274.06;5035199;28;20042;-64
2022/02/07 08:53:26;;;;;;;21.38;4.00;;;;;;;7.95;64.85;102276.19;5036399;28;20041;-64
2022/02/07 08:55:56;;;;;;;25.27;7.47;;;;;;;8.29;66.02;102278.75;5037550;28;20404;-64
2022/02/07 08:58:31;;;;;;;26.80;5.90;;;;;;;8.58;64.97;102291.09;5036033;28;20061;-63
2022/02/07 09:01:11;;;;;;;22.60;4.53;;;;;;;8.44;64.36;102292.66;5036254;28;20045;-66
2022/02/07 09:08:52;;;;;;;20.90;3.70;;;;;;;8.51;63.35;102318.78;5002661;28;20524;-63
2022/02/07 09:11:20;;;;;;;24.88;4.97;;;;;;;8.78;63.03;102330.56;5027061;28;20045;-65
2022/02/07 09:13:47;;;;;;;22.88;3.97;;;;;;;8.07;64.18;102339.16;5023074;28;20053;-64
2022/02/07 09:18:46;;;;;;;21.95;4.30;;;;;;;8.52;64.09;102342.41;5033778;28;20050;-64
2022/02/07 09:21:14;;;;;;;25.67;3.88;;;;;;;8.44;63.48;102353.06;5036449;28;20053;-64
2022/02/07 09:23:45;;;;;;;27.48;3.92;;;;;;;8.15;65.04;102368.91;5013123;28;20056;-64
2022/02/07 09:26:13;;;;;;;20.38;4.55;;;;;;;8.43;64.60;102378.84;5019640;28;20056;-64
2022/02/07 09:28:42;;;;;;;21.45;3.42;;;;;;;8.35;65.79;102373.81;5026261;28;20410;-64
2022/02/07 09:31:11;;;;;;;28.93;4.33;;;;;;;8.62;64.69;102374.63;5016793;28;20069;-64
2022/02/07 09:33:40;;;;;;;25.00;4.25;;;;;;;8.64;65.00;102377.94;5017064;28;20065;-64
2022/02/07 09:36:07;;;;;;;20.85;3.78;;;;;;;8.64;64.39;102383.44;5011833;28;20056;-65
2022/02/07 09:38:35;;;;;;;20.42;4.35;;;;;;;9.05;65.27;102394.53;5018112;28;20448;-65
2022/02/07 09:41:08;;;;;;;28.77;4.75;;;;;;;8.39;64.55;102408.72;5023491;28;20057;-65
2022/02/07 09:43:42;;;;;;;18.20;4.00;;;;;;;8.70;65.41;102413.44;5048066;28;20420;-64
2022/02/07 09:46:17;;;;;;;20.25;3.47;;;;;;;8.33;64.98;102426.25;5013030;28;20054;-64
2022/02/07 09:48:45;;;;;;;25.35;3.72;;;;;;;7.87;66.91;102443.16;5032867;28;20045;-64
2022/02/07 09:51:12;;;;;;;21.27;4.35;;;;;;;8.54;66.02;102436.34;5018580;28;20563;-65
2022/02/07 09:53:41;;;;;;;26.48;3.65;;;;;;;8.34;64.78;102444.38;5014486;28;20116;-66
2022/02/07 09:56:10;;;;;;;20.40;4.07;;;;;;;8.68;65.97;102445.03;5013946;28;20072;-65
2022/02/07 09:58:39;;;;;;;17.30;3.40;;;;;;;8.70;65.76;102457.41;5017565;28;20053;-65
2022/02/07 10:01:13;;;;;;;24.02;3.25;;;;;;;8.77;64.45;102452.53;5017035;28;20438;-64
2022/02/07 10:03:50;;;;;;;26.17;4.60;;;;;;;8.92;64.44;102447.19;5027445;28;20409;-65
2022/02/07 10:09:04;;;;;;;24.02;3.80;;;;;;;8.39;64.05;102466.38;5024676;28;20046;-63
2022/02/07 10:11:46;;;;;;;;;;;;;;;8.88;64.85;102468.03;5022946;28;20073;-64
2022/02/07 10:14:26;;;;;;;21.05;3.72;;;;;;;8.94;64.19;102477.97;5025696;28;19920;-64
2022/02/07 10:17:18;;;;;;;22.77;4.40;;;;;;;8.57;64.55;102484.44;5043775;28;20503;-64
2022/02/07 10:37:57;;;;;;;29.35;4.22;;;;;;;8.53;63.58;102494.28;5039881;28;20061;-66
2022/02/07 10:40:39;;;;;;;21.65;3.25;;;;;;;8.14;62.02;102490.75;5018664;28;20057;-65
2022/02/07 10:46:18;;;;;;;23.63;5.40;;;;;;;7.95;63.60;102494.84;5020336;28;20057;-68
2022/02/07 10:48:54;;;;;;;28.65;4.50;;;;;;;8.14;62.90;102488.00;5038470;28;20037;-66
2022/02/07 10:51:25;;;;;;;34.55;4.07;;;;;;;8.34;60.42;102499.28;5001679;28;20432;-66
2022/02/07 10:54:02;;;;;;;20.85;3.67;;;;;;;8.13;59.99;102491.81;5037493;28;20042;-66
2022/02/07 10:56:37;;;;;;;22.38;3.33;;;;;;;8.10;60.25;102492.34;5023153;28;20049;-66
2022/02/07 10:59:07;;;;;;;25.88;4.03;;;;;;;8.15;60.90;102491.56;5019697;28;20052;-66
2022/02/07 11:04:55;;;;;;;20.20;3.42;;;;;;;8.68;60.17;102489.78;5028330;28;20050;-68
2022/02/07 11:07:13;;;;;;;16.40;3.70;;;;;;;8.53;58.88;102491.53;5027210;28;20496;-66
2022/02/07 11:09:57;;;;;;;23.93;3.10;;;;;;;8.39;57.29;102495.75;5026531;28;20056;-66
2022/02/07 11:28:28;;;;;;;27.45;7.15;;;;;;;8.95;55.63;102487.06;5024847;28;20053;-63
2022/02/07 11:31:01;;;;;;;14.77;2.75;;;;;;;8.86;54.84;102481.19;5013446;28;20053;-63
2022/02/07 11:33:48;;;;;;;18.63;2.78;;;;;;;8.87;55.15;102482.84;5015250;28;20060;-63
2022/02/07 11:36:31;;;;;;;16.50;3.22;;;;;;;8.70;53.72;102495.06;5023035;28;20053;-63
2022/02/07 11:39:10;;;;;;;16.30;3.08;;;;;;;8.59;53.52;102499.59;5001918;28;20140;-63
2022/02/07 11:41:56;;;;;;;22.57;3.40;;;;;;;8.74;52.29;102501.66;5014914;28;20061;-63
2022/02/07 11:45:07;;;;;;;16.10;3.28;;;;;;;8.75;53.27;102509.66;5027238;28;20304;-63
2022/02/07 11:47:34;;;;;;;22.98;3.13;;;;;;;8.64;53.40;102513.38;5026321;28;20053;-64
2022/02/07 11:50:07;;;;;;;15.88;3.05;;;;;;;8.63;52.89;102513.66;5023402;28;20072;-65
2022/02/07 11:52:45;;;;;;;20.10;3.55;;;;;;;9.17;52.44;102515.31;5022514;28;20049;-62
2022/02/07 11:55:15;;;;;;;18.05;3.92;;;;;;;9.75;55.03;102511.66;5030362;28;20068;-65
2022/02/07 11:58:05;;;;;;;20.20;3.17;;;;;;;10.28;53.48;102508.75;5029521;28;20053;-65
2022/02/07 12:00:34;;;;;;;10.52;2.78;;;;;;;9.77;52.06;102515.00;5030557;28;20050;-63
2022/02/07 12:03:07;;;;;;;12.63;2.35;;;;;;;9.68;51.50;102505.56;5009001;28;20057;-65
2022/02/07 12:05:42;;;;;;;14.90;3.10;;;;;;;9.81;52.10;102503.22;5028472;28;20057;-65
2022/02/07 12:08:26;;;;;;;18.77;2.90;;;;;;;9.68;51.26;102497.31;5034416;28;20056;-64
2022/02/07 12:11:03;;;;;;;15.18;3.20;;;;;;;9.77;51.30;102501.22;5004326;28;20042;-64
2022/02/07 12:13:33;;;;;;;17.25;3.08;;;;;;;10.01;51.57;102502.47;5031805;28;20052;-64
2022/02/07 12:16:23;;;;;;;13.20;3.28;;;;;;;9.67;51.42;102506.66;5029778;28;20057;-62
2022/02/07 12:19:10;;;;;;;16.65;3.03;;;;;;;9.63;53.91;102505.53;5031738;28;20057;-63
2022/02/07 12:21:39;;;;;;;21.80;3.92;;;;;;;9.25;52.80;102501.09;5018299;28;20041;-62
2022/02/07 12:24:08;;;;;;;15.07;3.38;;;;;;;9.25;53.91;102500.25;5015674;28;20528;-63
2022/02/07 12:26:40;;;;;;;21.05;4.00;;;;;;;9.13;53.66;102493.00;5014628;28;20064;-62
2022/02/07 12:29:20;;;;;;;19.88;4.18;;;;;;;9.03;55.53;102498.41;5029083;28;20056;-62
2022/02/07 12:31:47;;;;;;;;;;;;;;;9.26;56.16;102493.69;5032190;28;20057;-61
2022/02/07 12:34:15;;;;;;;13.63;3.72;;;;;;;9.21;56.32;102497.19;5007653;28;20300;-61
2022/02/07 12:36:43;;;;;;;19.73;3.15;;;;;;;9.58;57.11;102506.34;5041349;28;20549;-62
2022/02/07 12:39:14;;;;;;;17.60;3.53;;;;;;;9.55;56.22;102506.03;5042543;28;20065;-62
2022/02/07 12:41:42;;;;;;;18.23;3.38;;;;;;;9.73;56.12;102509.19;5020878;28;20046;-62
2022/02/07 12:44:17;;;;;;;17.63;3.20;;;;;;;9.59;55.24;102504.41;5033581;28;20064;-63
2022/02/07 12:46:46;;;;;;;22.48;3.35;;;;;;;9.38;56.03;102495.16;5027561;28;20405;-62
2022/02/07 12:49:14;;;;;;;14.63;3.63;;;;;;;9.80;55.74;102509.78;5033861;28;20049;-62
2022/02/07 12:51:44;;;;;;;20.38;3.42;;;;;;;9.43;53.92;102502.63;5033754;28;20057;-63
2022/02/07 12:54:13;;;;;;;15.68;2.35;;;;;;;9.27;54.71;102492.59;5015329;28;20060;-62
2022/02/07 12:56:41;;;;;;;18.80;3.42;;;;;;;9.52;54.64;102498.31;5022579;28;20053;-63
2022/02/07 12:59:09;;;;;;;21.30;3.72;;;;;;;9.41;55.12;102493.81;5043991;28;20049;-62
2022/02/07 13:01:40;;;;;;;14.88;3.75;;;;;;;9.31;54.90;102488.22;5037100;28;20559;-62
2022/02/07 13:04:15;;;;;;;17.17;3.08;;;;;;;9.29;54.83;102485.75;5033186;28;20061;-63
2022/02/07 13:07:10;;;;;;;14.70;3.20;;;;;;;9.47;54.17;102488.09;5028475;28;20061;-62
2022/02/07 13:09:51;;;;;;;14.65;2.55;;;;;;;9.42;55.07;102488.03;5024281;28;20064;-62
2022/02/07 13:12:31;;;;;;;;;;;;;;;9.62;54.56;102492.88;5037336;28;20049;-62
2022/02/07 13:14:59;;;;;;;15.60;4.90;;;;;;;10.09;54.75;102486.31;5041630;28;19920;-63
2022/02/07 13:17:27;;;;;;;16.33;3.28;;;;;;;10.01;53.77;102495.06;5033331;28;20049;-63
2022/02/07 13:19:55;;;;;;;14.90;2.95;;;;;;;9.70;54.62;102497.88;5019360;28;20385;-63
2022/02/07 13:22:29;;;;;;;13.77;3.10;;;;;;;10.11;55.83;102491.59;5018454;28;20054;-62
2022/02/07 13:24:57;;;;;;;17.20;3.40;;;;;;;10.67;56.28;102482.44;4994280;28;20053;-64
2022/02/07 13:27:24;;;;;;;20.85;3.97;;;;;;;11.01;52.83;102494.66;5030570;28;20058;-64
2022/02/07 13:29:54;;;;;;;22.25;3.40;;;;;;;10.47;53.63;102490.66;5017317;28;20053;-62
2022/02/07 13:32:28;;;;;;;19.98;3.47;;;;;;;10.88;53.63;102492.41;4999965;28;20053;-61
2022/02/07 13:35:08;;;;;;;18.95;3.92;;;;;;;10.47;52.65;102495.31;5029902;28;20153;-62
2022/02/07 13:37:38;;;;;;;;;;;;;;;10.30;53.93;102502.97;5015325;28;20413;-62
2022/02/07 13:40:13;;;;;;;17.27;3.23;;;;;;;10.35;53.96;102511.25;4999340;28;20404;-63
2022/02/07 13:42:43;;;;;;;14.63;2.58;;;;;;;10.79;52.45;102504.25;5032957;28;20053;-62
2022/02/07 13:45:13;;;;;;;23.70;3.60;;;;;;;10.50;53.50;102501.13;5019034;28;20054;-62
2022/02/07 13:47:44;;;;;;;14.48;3.40;;;;;;;10.60;53.40;102503.91;5032185;28;20053;-63
2022/02/07 13:50:12;;;;;;;19.85;4.47;;;;;;;10.72;53.30;102507.25;5023836;28;20057;-63
2022/02/07 13:52:44;;;;;;;15.52;2.88;;;;;;;10.54;53.00;102507.75;5017342;28;20098;-62
2022/02/07 13:55:15;;;;;;;24.30;3.30;;;;;;;10.32;54.69;102512.59;5022143;28;20057;-61
2022/02/07 13:58:02;;;;;;;14.80;3.08;;;;;;;10.47;52.83;102515.44;5033478;28;20061;-63
2022/02/07 14:00:56;;;;;;;17.75;2.83;;;;;;;11.10;53.98;102506.81;5040292;28;20048;-58
2022/02/07 14:03:39;;;;;;;21.58;2.90;;;;;;;11.33;51.08;102506.28;5023844;28;20062;-61
2022/02/07 14:06:09;;;;;;;15.77;2.83;;;;;;;10.75;51.26;102500.38;5013417;28;20061;-61
2022/02/07 14:08:38;;;;;;;16.80;2.58;;;;;;;10.81;50.86;102500.13;5032454;28;20519;-61
2022/02/07 14:11:10;;;;;;;16.30;3.13;;;;;;;11.01;50.95;102508.44;5022133;28;20050;-62
2022/02/07 14:13:41;;;;;;;15.52;2.65;;;;;;;10.89;49.10;102509.78;5022622;28;20060;-61
2022/02/07 14:16:09;;;;;;;12.05;2.60;;;;;;;10.85;50.40;102512.28;5034439;28;20049;-62
2022/02/07 14:18:38;;;;;;;12.63;2.72;;;;;;;10.90;49.15;102512.28;5020494;28;20057;-61
2022/02/07 14:21:09;;;;;;;15.30;2.35;;;;;;;11.18;48.36;102511.78;5033045;28;20046;-61
2022/02/07 14:23:39;;;;;;;11.23;2.45;;;;;;;11.42;47.96;102511.25;5030915;28;20057;-61